createdAt,value
2023-04-24T00:02:25.331Z,30.10
2023-04-24T00:05:43.002Z,31.30
2023-04-24T00:09:24.912Z,31.90
2023-04-24T00:12:56.973Z,31.90
2023-04-24T00:16:30.681Z,32.50
2023-04-24T00:20:11.290Z,31.90
2023-04-24T00:23:47.934Z,32.30
2023-04-24T00:27:30.763Z,30.20
2023-04-24T00:31:12.161Z,29.00
2023-04-24T00:34:50.547Z,28.50
2023-04-24T00:38:16.349Z,28.90
2023-04-24T00:42:00.482Z,23.90
2023-04-24T00:45:40.532Z,24.50
2023-04-24T00:49:00.547Z,25.40
2023-04-24T00:52:21.769Z,23.30
2023-04-24T00:55:42.813Z,23.50
2023-04-24T00:59:25.779Z,21.80
2023-04-24T01:03:14.853Z,26.10
2023-04-24T01:06:45.710Z,24.60
2023-04-24T01:10:26.134Z,26.50
2023-04-24T01:14:14.094Z,28.60
2023-04-24T01:17:46.974Z,29.70
2023-04-24T01:21:32.429Z,30.00
2023-04-24T01:25:02.708Z,29.00
2023-04-24T01:28:36.818Z,29.50
2023-04-24T01:32:09.844Z,27.10
2023-04-24T01:35:58.831Z,26.30
2023-04-24T01:39:03.389Z,26.10
2023-04-24T01:41:55.169Z,24.80
2023-04-24T01:45:36.916Z,20.80
2023-04-24T01:48:40.990Z,20.80
2023-04-24T01:52:09.564Z,20.80
2023-04-24T01:55:40.994Z,20.60
2023-04-24T01:59:22.738Z,19.50
2023-04-24T02:02:42.344Z,16.80
2023-04-24T02:06:32.143Z,15.20
2023-04-24T02:10:13.446Z,15.80
2023-04-24T02:13:55.552Z,13.60
2023-04-24T02:17:44.442Z,13.30
2023-04-24T02:21:33.417Z,13.00
2023-04-24T02:24:54.528Z,14.60
2023-04-24T02:28:18.728Z,13.60
2023-04-24T02:32:08.015Z,13.10
2023-04-24T02:35:47.506Z,13.30
2023-04-24T02:39:18.952Z,13.80
2023-04-24T02:43:07.226Z,14.80
2023-04-24T02:46:45.971Z,14.70
2023-04-24T02:50:14.785Z,14.80
2023-04-24T02:53:45.693Z,15.90
2023-04-24T02:57:34.433Z,15.60
2023-04-24T03:01:11.326Z,13.30
2023-04-24T03:04:24.166Z,13.80
2023-04-24T03:07:57.342Z,14.00
2023-04-24T03:11:46.306Z,14.40
2023-04-24T03:15:08.679Z,14.00
2023-04-24T03:18:56.751Z,13.40
2023-04-24T03:22:36.863Z,14.20
2023-04-24T03:26:14.123Z,14.70
2023-04-24T03:30:03.124Z,13.90
2023-04-24T03:33:49.278Z,13.40
2023-04-24T03:37:38.389Z,15.10
2023-04-24T03:41:28.605Z,17.00
2023-04-24T03:45:07.000Z,16.20
2023-04-24T03:48:41.434Z,15.40
2023-04-24T03:52:38.977Z,17.70
2023-04-24T03:56:26.776Z,17.00
2023-04-24T04:00:08.927Z,15.70
2023-04-24T04:03:46.730Z,17.80
2023-04-24T04:07:18.566Z,18.10
2023-04-24T04:11:07.780Z,17.20
2023-04-24T04:14:57.234Z,16.70
2023-04-24T04:18:25.723Z,18.30
2023-04-24T04:21:46.998Z,17.30
2023-04-24T04:25:28.892Z,15.50
2023-04-24T04:29:18.756Z,16.10
2023-04-24T04:32:56.950Z,15.90
2023-04-24T04:36:40.371Z,15.60
2023-04-24T04:40:29.736Z,15.40
2023-04-24T04:44:19.054Z,15.40
2023-04-24T04:48:09.940Z,15.90
2023-04-24T04:51:52.229Z,17.40
2023-04-24T04:55:14.449Z,19.70
2023-04-24T04:59:09.872Z,18.40
2023-04-24T05:02:43.314Z,17.60
2023-04-24T05:06:32.734Z,17.20
2023-04-24T05:09:54.152Z,16.10
2023-04-24T05:13:43.689Z,15.60
2023-04-24T05:17:29.017Z,15.90
2023-04-24T05:21:01.203Z,15.40
2023-04-24T05:24:30.359Z,15.10
2023-04-24T05:28:15.366Z,15.80
2023-04-24T05:31:59.856Z,16.00
2023-04-24T05:35:49.285Z,16.20
2023-04-24T05:39:31.610Z,15.90
2023-04-24T05:43:21.160Z,16.40
2023-04-24T05:47:00.392Z,16.80
2023-04-24T05:50:37.017Z,15.20
2023-04-24T05:54:17.690Z,13.80
2023-04-24T05:58:06.771Z,15.70
2023-04-24T06:01:39.043Z,15.00
2023-04-24T06:05:28.145Z,14.80
2023-04-24T06:09:00.287Z,14.70
2023-04-24T06:12:49.851Z,14.50
2023-04-24T06:16:38.920Z,15.00
2023-04-24T06:20:13.443Z,14.60
2023-04-24T06:24:02.541Z,14.50
2023-04-24T06:27:50.137Z,15.10
2023-04-24T06:31:39.177Z,14.60
2023-04-24T06:35:17.970Z,15.40
2023-04-24T06:39:06.138Z,18.60
2023-04-24T06:42:51.400Z,16.80
2023-04-24T06:46:35.542Z,14.70
2023-04-24T06:50:24.478Z,14.60
2023-04-24T06:54:02.398Z,14.80
2023-04-24T06:57:37.781Z,14.80
2023-04-24T07:01:26.455Z,14.70
2023-04-24T07:05:06.532Z,15.40
2023-04-24T07:08:58.111Z,13.90
2023-04-24T07:12:47.056Z,15.20
2023-04-24T07:16:34.166Z,15.80
2023-04-24T07:20:23.261Z,14.80
2023-04-24T07:23:50.059Z,13.30
2023-04-24T07:27:33.297Z,13.20
2023-04-24T07:31:13.338Z,13.70
2023-04-24T07:35:02.229Z,14.30
2023-04-24T07:38:42.542Z,14.10
2023-04-24T07:42:26.024Z,13.80
2023-04-24T07:46:09.083Z,12.90
2023-04-24T07:49:33.247Z,12.20
2023-04-24T07:53:05.031Z,12.80
2023-04-24T07:56:45.708Z,12.90
2023-04-24T08:00:34.553Z,12.10
2023-04-24T08:04:23.628Z,13.50
2023-04-24T08:08:00.752Z,13.50
2023-04-24T08:11:43.833Z,12.60
2023-04-24T08:15:25.437Z,13.20
2023-04-24T08:19:03.908Z,11.80
2023-04-24T08:22:53.026Z,12.10
2023-04-24T08:26:20.973Z,11.40
2023-04-24T08:30:01.225Z,11.60
2023-04-24T08:33:50.368Z,12.10
2023-04-24T08:37:16.773Z,11.10
2023-04-24T08:40:58.973Z,9.90
2023-04-24T08:44:48.279Z,9.70
2023-04-24T08:48:31.599Z,9.80
2023-04-24T08:52:21.171Z,9.50
2023-04-24T08:56:10.637Z,9.60
2023-04-24T08:59:59.625Z,8.70
2023-04-24T09:03:48.907Z,8.60
2023-04-24T09:07:38.020Z,9.10
2023-04-24T09:11:27.797Z,8.80
2023-04-24T09:15:18.353Z,8.00
2023-04-24T09:19:07.263Z,8.80
2023-04-24T09:22:56.034Z,8.70
2023-04-24T09:26:45.620Z,8.40
2023-04-24T09:30:37.615Z,8.20
2023-04-24T09:34:38.473Z,8.60
2023-04-24T09:38:27.792Z,8.70
2023-04-24T09:42:19.982Z,8.40
2023-04-24T09:46:17.788Z,9.00
2023-04-24T09:50:09.682Z,9.50
2023-04-24T09:53:48.550Z,9.40
2023-04-24T09:57:23.172Z,8.80
2023-04-24T10:01:10.671Z,8.90
2023-04-24T10:04:42.074Z,8.70
2023-04-24T10:08:31.074Z,8.60
2023-04-24T10:12:20.289Z,9.60
2023-04-24T10:16:08.470Z,8.80
2023-04-24T10:19:50.882Z,8.40
2023-04-24T10:23:39.675Z,9.40
2023-04-24T10:27:27.210Z,8.50
2023-04-24T10:31:16.284Z,8.10
2023-04-24T10:35:06.174Z,6.30
2023-04-24T10:38:57.770Z,6.00
2023-04-24T10:42:58.121Z,5.00
2023-04-24T10:47:06.403Z,4.50
2023-04-24T10:50:55.444Z,4.30
2023-04-24T10:54:44.234Z,5.20
2023-04-24T10:58:23.842Z,4.40
2023-04-24T11:02:29.322Z,4.80
2023-04-24T11:06:17.238Z,5.20
2023-04-24T11:10:09.113Z,5.30
2023-04-24T11:13:51.315Z,5.80
2023-04-24T11:17:39.562Z,5.40
2023-04-24T11:21:28.769Z,5.20
2023-04-24T11:25:29.748Z,5.20
2023-04-24T11:29:21.366Z,5.00
2023-04-24T11:33:01.042Z,4.80
2023-04-24T11:36:41.569Z,4.60
2023-04-24T11:40:08.049Z,4.20
2023-04-24T11:43:50.042Z,3.20
2023-04-24T11:47:39.405Z,2.90
2023-04-24T11:51:31.287Z,2.80
2023-04-24T11:55:28.146Z,3.00
2023-04-24T11:59:18.243Z,3.10
2023-04-24T12:03:08.600Z,2.70
2023-04-24T12:06:52.667Z,2.70
2023-04-24T12:10:56.593Z,3.50
2023-04-24T12:14:50.679Z,3.80
2023-04-24T12:18:39.912Z,3.20
2023-04-24T12:21:39.718Z,3.40
2023-04-24T12:25:08.861Z,3.30
2023-04-24T12:28:18.929Z,3.50
2023-04-24T12:32:01.881Z,3.40
2023-04-24T12:35:41.346Z,3.60
2023-04-24T12:39:24.088Z,3.20
2023-04-24T12:43:12.852Z,3.40
2023-04-24T12:46:45.458Z,3.60
2023-04-24T12:50:34.744Z,3.20
2023-04-24T12:54:24.418Z,3.00
2023-04-24T12:58:12.651Z,2.90
2023-04-24T13:02:03.363Z,2.80
2023-04-24T13:05:53.508Z,3.40
2023-04-24T13:09:24.760Z,3.50
2023-04-24T13:13:04.259Z,2.00
2023-04-24T13:16:54.066Z,1.70
2023-04-24T13:20:43.386Z,1.50
2023-04-24T13:24:25.611Z,1.50
2023-04-24T13:28:14.808Z,1.40
2023-04-24T13:32:03.350Z,1.80
2023-04-24T13:35:36.570Z,1.60
2023-04-24T13:39:18.417Z,1.70
2023-04-24T13:43:07.815Z,1.60
2023-04-24T13:46:56.855Z,1.40
2023-04-24T13:50:42.766Z,1.80
2023-04-24T13:54:32.299Z,2.20
2023-04-24T13:58:20.986Z,2.00
2023-04-24T14:02:10.313Z,1.90
2023-04-24T14:05:53.548Z,1.90
2023-04-24T14:09:32.356Z,2.00
2023-04-24T14:13:14.774Z,2.50
2023-04-24T14:17:05.257Z,2.50
2023-04-24T14:20:46.476Z,2.80
2023-04-24T14:24:32.171Z,2.50
2023-04-24T14:28:20.780Z,2.80
2023-04-24T14:32:10.060Z,2.90
2023-04-24T14:35:57.669Z,3.40
2023-04-24T14:39:13.775Z,3.60
2023-04-24T14:42:48.130Z,3.50
2023-04-24T14:46:37.158Z,3.50
2023-04-24T14:50:18.069Z,3.60
2023-04-24T14:54:05.670Z,3.70
2023-04-24T14:57:30.992Z,3.30
2023-04-24T15:01:12.470Z,3.50
2023-04-24T15:04:32.716Z,3.00
2023-04-24T15:08:20.480Z,3.30
2023-04-24T15:11:54.915Z,3.10
2023-04-24T15:15:15.170Z,2.80
2023-04-24T15:18:30.063Z,2.80
2023-04-24T15:22:11.803Z,3.20
2023-04-24T15:26:00.706Z,3.10
2023-04-24T15:29:34.260Z,3.40
2023-04-24T15:33:15.174Z,3.00
2023-04-24T15:36:43.877Z,2.10
2023-04-24T15:40:33.237Z,1.90
2023-04-24T15:44:22.988Z,1.70
2023-04-24T15:47:59.214Z,1.90
2023-04-24T15:51:49.143Z,1.90
2023-04-24T15:55:40.083Z,2.10
2023-04-24T15:59:23.710Z,1.60
2023-04-24T16:03:14.127Z,1.00
2023-04-24T16:06:57.425Z,1.50
2023-04-24T16:10:39.661Z,1.10
2023-04-24T16:14:04.131Z,0.80
2023-04-24T16:17:45.999Z,0.80
2023-04-24T16:21:18.089Z,0.70
2023-04-24T16:25:06.891Z,1.40
2023-04-24T16:28:39.494Z,1.30
2023-04-24T16:32:12.043Z,0.90
2023-04-24T16:36:00.294Z,0.60
2023-04-24T16:39:35.240Z,1.10
2023-04-24T16:43:24.560Z,1.10
2023-04-24T16:47:07.051Z,0.70
2023-04-24T16:50:55.006Z,0.60
2023-04-24T16:54:36.510Z,0.70
2023-04-24T16:58:25.998Z,0.60
2023-04-24T17:01:52.223Z,0.50
2023-04-24T17:05:41.327Z,0.60
2023-04-24T17:09:07.209Z,0.70
2023-04-24T17:12:31.487Z,0.90
2023-04-24T17:16:06.506Z,1.40
2023-04-24T17:19:35.192Z,1.60
2023-04-24T17:22:57.663Z,1.80
2023-04-24T17:26:12.670Z,1.90
2023-04-24T17:29:46.279Z,1.50
2023-04-24T17:33:35.802Z,2.60
2023-04-24T17:37:32.871Z,3.50
2023-04-24T17:41:22.232Z,4.80
2023-04-24T17:45:03.360Z,4.80
2023-04-24T17:48:33.645Z,3.60
2023-04-24T17:52:06.757Z,3.10
2023-04-24T17:55:51.376Z,2.40
2023-04-24T17:59:33.138Z,2.50
2023-04-24T18:35:27.749Z,3.50
2023-04-24T18:39:16.069Z,4.00
2023-04-24T18:42:27.040Z,4.20
2023-04-24T18:46:14.461Z,4.60
2023-04-24T18:49:45.061Z,4.80
2023-04-24T18:53:16.499Z,4.90
2023-04-24T18:55:46.452Z,5.10
2023-04-24T18:58:57.113Z,5.30
2023-04-24T19:02:25.698Z,5.20
2023-04-24T19:05:55.112Z,6.10
2023-04-24T19:09:43.511Z,6.30
2023-04-24T19:13:17.074Z,6.40
2023-04-24T19:16:44.843Z,7.00
2023-04-24T19:20:31.984Z,7.70
2023-04-24T19:24:20.166Z,8.10
2023-04-24T19:27:52.189Z,10.90
2023-04-24T19:31:29.902Z,9.50
2023-04-24T19:35:09.354Z,11.00
2023-04-24T19:38:56.724Z,11.40
2023-04-24T19:42:44.872Z,10.10
2023-04-24T19:46:33.648Z,10.10
2023-04-24T19:50:21.458Z,10.30
2023-04-24T19:54:04.665Z,9.70
2023-04-24T19:57:52.779Z,8.50
2023-04-24T20:01:36.678Z,8.90
2023-04-24T20:05:31.614Z,10.90
2023-04-24T20:09:20.181Z,11.60
2023-04-24T20:13:07.931Z,13.50
2023-04-24T20:16:45.893Z,14.40
2023-04-24T20:20:33.645Z,15.10
2023-04-24T20:24:01.926Z,13.30
2023-04-24T20:27:49.084Z,13.30
2023-04-24T20:31:31.847Z,12.00
2023-04-24T20:35:05.041Z,11.80
2023-04-24T20:38:32.406Z,10.10
2023-04-24T20:42:13.075Z,10.10
2023-04-24T20:46:00.738Z,9.90
2023-04-24T20:49:41.446Z,10.10
2023-04-24T20:53:08.642Z,10.50
2023-04-24T20:56:55.130Z,9.60
2023-04-24T21:00:42.954Z,8.80
2023-04-24T21:04:07.376Z,9.10
2023-04-24T21:07:47.844Z,9.20
2023-04-24T21:11:28.626Z,8.70
2023-04-24T21:15:06.277Z,8.30
2023-04-24T21:18:29.547Z,7.80
2023-04-24T21:22:07.436Z,7.10
2023-04-24T21:25:19.251Z,6.70
2023-04-24T21:28:56.911Z,6.50
2023-04-24T21:32:45.457Z,6.10
2023-04-24T21:36:33.214Z,6.10
2023-04-24T21:40:07.676Z,6.00
2023-04-24T21:43:50.323Z,5.20
2023-04-24T21:47:30.541Z,4.80
2023-04-24T21:51:16.974Z,5.20
2023-04-24T21:55:04.707Z,4.50
2023-04-24T21:58:52.885Z,4.70
2023-04-24T22:02:40.900Z,4.30
2023-04-24T22:06:24.354Z,4.40
2023-04-24T22:10:11.787Z,3.90
2023-04-24T22:13:59.388Z,3.70
2023-04-24T22:17:45.685Z,3.40
2023-04-24T22:21:19.638Z,3.20
2023-04-24T22:24:58.106Z,2.70
2023-04-24T22:28:29.280Z,2.60
2023-04-24T22:32:09.781Z,2.20
2023-04-24T22:35:57.369Z,2.10
2023-04-24T22:39:44.571Z,2.10
2023-04-24T22:43:25.756Z,2.00
2023-04-24T22:47:13.020Z,2.00
2023-04-24T22:51:00.763Z,2.00
2023-04-24T22:54:31.317Z,1.90
2023-04-24T22:57:52.094Z,2.10
2023-04-24T23:01:32.635Z,2.00
2023-04-24T23:05:05.800Z,1.80
2023-04-24T23:08:50.966Z,1.80
2023-04-24T23:12:20.182Z,1.60
2023-04-24T23:15:35.559Z,1.50
2023-04-24T23:19:24.273Z,1.50
2023-04-24T23:22:35.904Z,1.40
2023-04-24T23:26:07.190Z,1.60
2023-04-24T23:29:54.637Z,1.40
2023-04-24T23:33:16.265Z,1.20
2023-04-24T23:36:50.905Z,1.20
2023-04-24T23:40:32.560Z,1.30
2023-04-24T23:43:50.795Z,1.20
2023-04-24T23:47:33.972Z,1.30
2023-04-24T23:51:21.573Z,1.30
2023-04-24T23:54:58.079Z,1.50
2023-04-24T23:58:11.244Z,1.20
